This is the latest recevied weather packets stored in our database for station/object HOWARD. If no packets are shown the sender has not sent any weather packets the latest 10 day(s).
| Time | Temp. | Humidity | Pressure | Rain* | Wind** | Luminosity | Snow |
|---|---|---|---|---|---|---|---|
| 1777947107 | 7.22° C | 65% | 1007.8 hPa | 0 mm | - | - | - |
| 1777946507 | 7.78° C | 64% | 1007.9 hPa | 0 mm | - | - | - |
| 1777945907 | 7.78° C | 64% | 1007.9 hPa | 0 mm | - | - | - |
| 1777945338 | 8.89° C | 62% | 1008 hPa | 0 mm | - | - | - |
| 1777945307 | 8.89° C | 62% | 1008 hPa | 0 mm | - | - | - |
| 1777944707 | 8.89° C | 61% | 1008 hPa | 0 mm | - | - | - |
| 1777944107 | 8.89° C | 59% | 1008 hPa | 0 mm | - | - | - |
| 1777943507 | 9.44° C | 55% | 1008.2 hPa | 0 mm | - | - | - |
| 1777942908 | 9.44° C | 53% | 1008.3 hPa | 0 mm | - | - | - |
| 1777942307 | 10° C | 51% | 1008.3 hPa | 0 mm | - | - | - |
| 1777941709 | 9.44° C | 54% | 1008.2 hPa | 0 mm | - | - | - |
| 1777941107 | 9.44° C | 55% | 1008.3 hPa | 0 mm | - | - | - |
| 1777940507 | 10° C | 55% | 1008.3 hPa | 0 mm | - | - | - |
| 1777939907 | 9.44° C | 57% | 1008.4 hPa | 0 mm | - | - | - |
| 1777939308 | 10.56° C | 54% | 1008.2 hPa | 0 mm | - | - | - |
| 1777938707 | 11.11° C | 45% | 1008.3 hPa | 0 mm | - | - | - |
| 1777938107 | 11.11° C | 46% | 1008.2 hPa | 0 mm | - | - | - |
| 1777937509 | 11.11° C | 48% | 1008.1 hPa | 0 mm | - | - | - |
| 1777936907 | 11.11° C | 47% | 1008.1 hPa | 0 mm | - | - | - |
| 1777936307 | 11.11° C | 49% | 1008.1 hPa | 0 mm | - | - | - |
| 1777935709 | 11.11° C | 49% | 1008.3 hPa | 0 mm | - | - | - |
| 1777935107 | 11.11° C | 49% | 1008.4 hPa | 0 mm | - | - | - |
| 1777934553 | 11.11° C | 49% | 1008.4 hPa | 0 mm | - | - | - |
| 1777934507 | 11.11° C | 49% | 1008.4 hPa | 0 mm | - | - | - |
| 1777933907 | 11.11° C | 49% | 1008.6 hPa | 0 mm | - | - | - |
* Rain latest hour (hover to see other rain measurements)
** Current wind speed in m/s (hover to see current wind gust speed)